sensor_id;sensor_type;location;lat;lon;timestamp;pressure;altitude;pressure_sealevel;temperature;humidity
4590;BME280;2307;48.448;9.216;2022-08-01T00:01:15;95529.16;;;22.20;51.35
4590;BME280;2307;48.448;9.216;2022-08-01T00:03:41;95524.38;;;22.17;51.92
4590;BME280;2307;48.448;9.216;2022-08-01T00:06:07;95523.38;;;22.13;51.76
4590;BME280;2307;48.448;9.216;2022-08-01T00:08:34;95524.69;;;22.16;51.87
4590;BME280;2307;48.448;9.216;2022-08-01T00:11:00;95521.81;;;22.12;51.72
4590;BME280;2307;48.448;9.216;2022-08-01T00:13:27;95516.06;;;22.05;51.87
4590;BME280;2307;48.448;9.216;2022-08-01T00:15:54;95513.97;;;22.02;52.06
4590;BME280;2307;48.448;9.216;2022-08-01T00:18:21;95521.06;;;21.98;52.48
4590;BME280;2307;48.448;9.216;2022-08-01T00:20:47;95518.69;;;21.97;52.68
4590;BME280;2307;48.448;9.216;2022-08-01T00:23:14;95525.56;;;21.89;53.20
4590;BME280;2307;48.448;9.216;2022-08-01T00:25:40;95518.00;;;21.91;53.37
4590;BME280;2307;48.448;9.216;2022-08-01T00:28:06;95520.28;;;21.84;53.78
4590;BME280;2307;48.448;9.216;2022-08-01T00:30:33;95526.13;;;22.00;52.79
4590;BME280;2307;48.448;9.216;2022-08-01T00:33:01;95518.97;;;21.95;53.18
4590;BME280;2307;48.448;9.216;2022-08-01T00:35:27;95524.13;;;22.05;52.68
4590;BME280;2307;48.448;9.216;2022-08-01T00:37:54;95528.84;;;22.22;52.32
4590;BME280;2307;48.448;9.216;2022-08-01T00:40:20;95521.16;;;22.07;52.57
4590;BME280;2307;48.448;9.216;2022-08-01T00:42:47;95525.28;;;21.91;53.93
4590;BME280;2307;48.448;9.216;2022-08-01T00:45:13;95527.34;;;21.80;54.58
4590;BME280;2307;48.448;9.216;2022-08-01T00:47:40;95533.53;;;21.81;54.48
4590;BME280;2307;48.448;9.216;2022-08-01T00:50:08;95523.88;;;21.66;54.95
4590;BME280;2307;48.448;9.216;2022-08-01T00:52:35;95518.63;;;21.61;55.35
4590;BME280;2307;48.448;9.216;2022-08-01T00:55:02;95529.16;;;21.57;55.96
4590;BME280;2307;48.448;9.216;2022-08-01T00:57:28;95527.06;;;21.68;55.33
4590;BME280;2307;48.448;9.216;2022-08-01T00:59:55;95521.63;;;21.59;55.99
4590;BME280;2307;48.448;9.216;2022-08-01T01:02:22;95530.38;;;21.65;55.85
4590;BME280;2307;48.448;9.216;2022-08-01T01:04:48;95519.50;;;21.56;56.46
4590;BME280;2307;48.448;9.216;2022-08-01T01:07:17;95526.69;;;21.61;56.05
4590;BME280;2307;48.448;9.216;2022-08-01T01:09:46;95524.31;;;21.59;56.21
4590;BME280;2307;48.448;9.216;2022-08-01T01:12:20;95520.81;;;21.45;56.94
4590;BME280;2307;48.448;9.216;2022-08-01T01:14:51;95526.41;;;21.49;57.54
4590;BME280;2307;48.448;9.216;2022-08-01T01:17:19;95528.09;;;21.45;57.15
4590;BME280;2307;48.448;9.216;2022-08-01T01:19:47;95528.19;;;21.40;57.52
4590;BME280;2307;48.448;9.216;2022-08-01T01:22:21;95530.28;;;21.29;58.21
4590;BME280;2307;48.448;9.216;2022-08-01T01:24:54;95531.00;;;21.21;59.19
4590;BME280;2307;48.448;9.216;2022-08-01T01:27:28;95537.44;;;21.20;59.17
4590;BME280;2307;48.448;9.216;2022-08-01T01:30:02;95528.69;;;21.28;58.74
4590;BME280;2307;48.448;9.216;2022-08-01T01:32:30;95532.75;;;21.26;58.88
4590;BME280;2307;48.448;9.216;2022-08-01T01:34:59;95537.16;;;21.35;58.54
4590;BME280;2307;48.448;9.216;2022-08-01T01:37:26;95536.25;;;21.26;59.29
4590;BME280;2307;48.448;9.216;2022-08-01T01:39:54;95535.56;;;21.21;59.50
4590;BME280;2307;48.448;9.216;2022-08-01T01:42:21;95529.59;;;21.24;60.34
4590;BME280;2307;48.448;9.216;2022-08-01T01:44:50;95536.66;;;21.19;60.11
4590;BME280;2307;48.448;9.216;2022-08-01T01:47:18;95539.53;;;21.23;60.21
4590;BME280;2307;48.448;9.216;2022-08-01T01:49:46;95535.97;;;21.28;60.22
4590;BME280;2307;48.448;9.216;2022-08-01T01:52:13;95538.34;;;21.43;59.41
4590;BME280;2307;48.448;9.216;2022-08-01T01:54:42;95540.63;;;21.36;59.59
4590;BME280;2307;48.448;9.216;2022-08-01T01:57:10;95543.03;;;21.24;60.23
4590;BME280;2307;48.448;9.216;2022-08-01T01:59:38;95537.13;;;21.22;60.38
4590;BME280;2307;48.448;9.216;2022-08-01T02:02:05;95533.13;;;21.05;61.51
4590;BME280;2307;48.448;9.216;2022-08-01T02:04:34;95538.31;;;21.02;61.79
4590;BME280;2307;48.448;9.216;2022-08-01T02:07:02;95530.53;;;21.00;61.89
4590;BME280;2307;48.448;9.216;2022-08-01T02:09:29;95533.31;;;20.95;62.64
4590;BME280;2307;48.448;9.216;2022-08-01T02:11:57;95534.13;;;20.96;62.82
4590;BME280;2307;48.448;9.216;2022-08-01T02:14:25;95536.88;;;20.91;63.31
4590;BME280;2307;48.448;9.216;2022-08-01T02:16:53;95539.75;;;20.81;63.72
4590;BME280;2307;48.448;9.216;2022-08-01T02:19:21;95535.69;;;20.83;63.99
4590;BME280;2307;48.448;9.216;2022-08-01T02:21:49;95538.53;;;20.73;64.70
4590;BME280;2307;48.448;9.216;2022-08-01T02:24:19;95536.44;;;20.70;65.11
4590;BME280;2307;48.448;9.216;2022-08-01T02:26:50;95542.78;;;20.60;66.47
4590;BME280;2307;48.448;9.216;2022-08-01T02:29:19;95544.50;;;20.84;65.33
4590;BME280;2307;48.448;9.216;2022-08-01T02:31:47;95541.81;;;20.70;65.88
4590;BME280;2307;48.448;9.216;2022-08-01T02:34:15;95550.69;;;20.52;67.66
4590;BME280;2307;48.448;9.216;2022-08-01T02:36:43;95544.81;;;20.50;68.73
4590;BME280;2307;48.448;9.216;2022-08-01T02:39:14;95551.28;;;20.49;69.51
4590;BME280;2307;48.448;9.216;2022-08-01T02:41:42;95542.41;;;20.35;70.76
4590;BME280;2307;48.448;9.216;2022-08-01T02:44:09;95543.91;;;20.41;70.91
4590;BME280;2307;48.448;9.216;2022-08-01T02:46:37;95545.88;;;20.35;72.10
4590;BME280;2307;48.448;9.216;2022-08-01T02:49:05;95541.88;;;20.33;72.70
4590;BME280;2307;48.448;9.216;2022-08-01T02:51:32;95543.91;;;20.41;72.62
4590;BME280;2307;48.448;9.216;2022-08-01T02:54:00;95542.88;;;20.37;73.52
4590;BME280;2307;48.448;9.216;2022-08-01T02:56:29;95538.69;;;20.31;73.87
4590;BME280;2307;48.448;9.216;2022-08-01T02:59:01;95536.31;;;20.29;74.08
4590;BME280;2307;48.448;9.216;2022-08-01T03:01:28;95542.59;;;20.20;75.23
4590;BME280;2307;48.448;9.216;2022-08-01T03:03:55;95542.28;;;20.21;75.89
4590;BME280;2307;48.448;9.216;2022-08-01T03:06:21;95529.84;;;20.11;76.80
4590;BME280;2307;48.448;9.216;2022-08-01T03:08:49;95538.03;;;20.01;76.92
4590;BME280;2307;48.448;9.216;2022-08-01T03:11:16;95530.28;;;20.19;75.72
4590;BME280;2307;48.448;9.216;2022-08-01T03:13:45;95543.97;;;20.17;76.23
4590;BME280;2307;48.448;9.216;2022-08-01T03:16:13;95537.38;;;20.09;76.14
4590;BME280;2307;48.448;9.216;2022-08-01T03:18:41;95541.16;;;20.08;76.57
4590;BME280;2307;48.448;9.216;2022-08-01T03:21:09;95542.16;;;20.12;77.23
4590;BME280;2307;48.448;9.216;2022-08-01T03:23:37;95535.16;;;20.17;77.53
4590;BME280;2307;48.448;9.216;2022-08-01T03:26:05;95551.28;;;20.11;78.84
4590;BME280;2307;48.448;9.216;2022-08-01T03:28:31;95541.00;;;20.19;78.56
4590;BME280;2307;48.448;9.216;2022-08-01T03:30:59;95542.22;;;20.07;80.01
4590;BME280;2307;48.448;9.216;2022-08-01T03:33:26;95543.34;;;20.06;79.58
4590;BME280;2307;48.448;9.216;2022-08-01T03:35:53;95548.75;;;20.01;80.59
4590;BME280;2307;48.448;9.216;2022-08-01T03:38:21;95541.72;;;20.05;80.43
4590;BME280;2307;48.448;9.216;2022-08-01T03:40:49;95538.09;;;20.15;79.37
4590;BME280;2307;48.448;9.216;2022-08-01T03:43:19;95541.81;;;20.00;79.20
4590;BME280;2307;48.448;9.216;2022-08-01T03:45:48;95538.69;;;19.93;79.74
4590;BME280;2307;48.448;9.216;2022-08-01T03:48:18;95541.28;;;19.98;78.95
4590;BME280;2307;48.448;9.216;2022-08-01T03:50:45;95542.81;;;19.86;80.47
4590;BME280;2307;48.448;9.216;2022-08-01T03:53:13;95542.97;;;19.94;80.66
4590;BME280;2307;48.448;9.216;2022-08-01T03:55:41;95541.72;;;19.87;80.66
4590;BME280;2307;48.448;9.216;2022-08-01T03:58:08;95538.81;;;19.83;80.01
4590;BME280;2307;48.448;9.216;2022-08-01T04:00:35;95534.03;;;19.80;80.54
4590;BME280;2307;48.448;9.216;2022-08-01T04:03:03;95540.66;;;19.88;80.80
4590;BME280;2307;48.448;9.216;2022-08-01T04:05:32;95544.50;;;20.00;80.79
4590;BME280;2307;48.448;9.216;2022-08-01T04:07:58;95547.75;;;19.97;80.67
4590;BME280;2307;48.448;9.216;2022-08-01T04:10:27;95538.13;;;19.96;79.95
4590;BME280;2307;48.448;9.216;2022-08-01T04:12:53;95546.00;;;20.06;81.21
4590;BME280;2307;48.448;9.216;2022-08-01T04:15:20;95545.44;;;20.09;80.18
4590;BME280;2307;48.448;9.216;2022-08-01T04:17:47;95553.25;;;20.06;80.53
4590;BME280;2307;48.448;9.216;2022-08-01T04:20:13;95553.03;;;20.02;81.69
4590;BME280;2307;48.448;9.216;2022-08-01T04:22:42;95554.63;;;20.03;82.37
4590;BME280;2307;48.448;9.216;2022-08-01T04:25:09;95563.19;;;20.05;82.27
4590;BME280;2307;48.448;9.216;2022-08-01T04:27:37;95561.31;;;20.06;83.54
4590;BME280;2307;48.448;9.216;2022-08-01T04:30:05;95558.31;;;20.07;83.63
4590;BME280;2307;48.448;9.216;2022-08-01T04:32:33;95566.81;;;20.14;84.09
4590;BME280;2307;48.448;9.216;2022-08-01T04:35:01;95563.09;;;20.10;84.72
4590;BME280;2307;48.448;9.216;2022-08-01T04:37:29;95562.38;;;20.05;85.03
4590;BME280;2307;48.448;9.216;2022-08-01T04:39:58;95564.19;;;20.09;85.85
4590;BME280;2307;48.448;9.216;2022-08-01T04:42:25;95561.28;;;20.25;84.47
4590;BME280;2307;48.448;9.216;2022-08-01T04:44:52;95572.38;;;20.18;85.61
4590;BME280;2307;48.448;9.216;2022-08-01T04:47:19;95567.25;;;20.22;84.75
4590;BME280;2307;48.448;9.216;2022-08-01T04:49:46;95568.47;;;20.10;86.35
4590;BME280;2307;48.448;9.216;2022-08-01T04:52:12;95566.53;;;19.97;88.21
4590;BME280;2307;48.448;9.216;2022-08-01T04:54:39;95574.03;;;19.95;89.17
4590;BME280;2307;48.448;9.216;2022-08-01T04:57:07;95575.72;;;19.91;90.32
4590;BME280;2307;48.448;9.216;2022-08-01T04:59:34;95574.69;;;19.87;91.95
4590;BME280;2307;48.448;9.216;2022-08-01T05:02:08;95580.56;;;19.89;92.28
4590;BME280;2307;48.448;9.216;2022-08-01T05:04:35;95572.03;;;19.87;91.62
4590;BME280;2307;48.448;9.216;2022-08-01T05:07:01;95583.09;;;19.81;92.99
4590;BME280;2307;48.448;9.216;2022-08-01T05:09:28;95576.84;;;19.85;93.64
4590;BME280;2307;48.448;9.216;2022-08-01T05:11:55;95583.66;;;19.78;95.30
4590;BME280;2307;48.448;9.216;2022-08-01T05:14:24;95581.84;;;19.73;95.63
4590;BME280;2307;48.448;9.216;2022-08-01T05:16:51;95575.91;;;19.76;96.47
4590;BME280;2307;48.448;9.216;2022-08-01T05:19:18;95576.72;;;19.77;97.19
4590;BME280;2307;48.448;9.216;2022-08-01T05:21:44;95583.69;;;19.54;97.62
4590;BME280;2307;48.448;9.216;2022-08-01T05:24:11;95576.81;;;19.67;97.52
4590;BME280;2307;48.448;9.216;2022-08-01T05:26:37;95573.22;;;19.76;97.24
4590;BME280;2307;48.448;9.216;2022-08-01T05:29:04;95570.19;;;19.83;97.25
4590;BME280;2307;48.448;9.216;2022-08-01T05:31:32;95576.47;;;19.73;97.68
4590;BME280;2307;48.448;9.216;2022-08-01T05:33:59;95576.56;;;19.87;97.28
4590;BME280;2307;48.448;9.216;2022-08-01T05:36:26;95582.75;;;19.87;99.68
4590;BME280;2307;48.448;9.216;2022-08-01T05:38:52;95575.66;;;19.96;100.00
4590;BME280;2307;48.448;9.216;2022-08-01T05:41:19;95580.63;;;19.84;98.85
4590;BME280;2307;48.448;9.216;2022-08-01T05:43:45;95576.94;;;19.80;99.48
4590;BME280;2307;48.448;9.216;2022-08-01T05:46:12;95569.53;;;19.72;99.78
4590;BME280;2307;48.448;9.216;2022-08-01T05:48:39;95577.00;;;19.75;100.00
4590;BME280;2307;48.448;9.216;2022-08-01T05:51:06;95570.53;;;19.76;100.00
4590;BME280;2307;48.448;9.216;2022-08-01T05:53:32;95574.44;;;19.65;100.00
4590;BME280;2307;48.448;9.216;2022-08-01T05:55:59;95568.97;;;19.75;100.00
4590;BME280;2307;48.448;9.216;2022-08-01T05:58:25;95579.22;;;19.68;100.00
4590;BME280;2307;48.448;9.216;2022-08-01T06:00:52;95576.13;;;19.80;100.00
4590;BME280;2307;48.448;9.216;2022-08-01T06:03:18;95576.13;;;19.98;98.16
4590;BME280;2307;48.448;9.216;2022-08-01T06:05:46;95575.16;;;20.13;99.60
4590;BME280;2307;48.448;9.216;2022-08-01T06:08:13;95576.59;;;20.24;97.24
4590;BME280;2307;48.448;9.216;2022-08-01T06:10:39;95576.84;;;20.28;95.29
4590;BME280;2307;48.448;9.216;2022-08-01T06:13:05;95586.41;;;20.34;95.47
4590;BME280;2307;48.448;9.216;2022-08-01T06:15:32;95570.94;;;20.44;95.80
4590;BME280;2307;48.448;9.216;2022-08-01T06:17:58;95581.38;;;20.46;96.97
4590;BME280;2307;48.448;9.216;2022-08-01T06:20:25;95575.16;;;20.50;94.08
4590;BME280;2307;48.448;9.216;2022-08-01T06:22:52;95582.69;;;20.30;95.32
4590;BME280;2307;48.448;9.216;2022-08-01T06:25:19;95582.69;;;20.30;97.30
4590;BME280;2307;48.448;9.216;2022-08-01T06:27:46;95576.38;;;20.39;97.41
4590;BME280;2307;48.448;9.216;2022-08-01T06:30:12;95587.13;;;20.58;95.94
4590;BME280;2307;48.448;9.216;2022-08-01T06:32:39;95586.47;;;20.47;95.57
4590;BME280;2307;48.448;9.216;2022-08-01T06:35:06;95586.09;;;20.54;95.08
4590;BME280;2307;48.448;9.216;2022-08-01T06:37:33;95578.81;;;20.73;93.20
4590;BME280;2307;48.448;9.216;2022-08-01T06:40:01;95573.59;;;20.63;93.63
4590;BME280;2307;48.448;9.216;2022-08-01T06:42:28;95574.63;;;20.67;93.63
4590;BME280;2307;48.448;9.216;2022-08-01T06:44:56;95577.09;;;20.77;93.38
4590;BME280;2307;48.448;9.216;2022-08-01T06:47:22;95576.56;;;20.80;92.06
4590;BME280;2307;48.448;9.216;2022-08-01T06:49:49;95573.28;;;20.83;92.71
4590;BME280;2307;48.448;9.216;2022-08-01T06:52:15;95573.06;;;20.93;90.43
4590;BME280;2307;48.448;9.216;2022-08-01T06:54:42;95573.47;;;20.87;90.04
4590;BME280;2307;48.448;9.216;2022-08-01T06:57:09;95568.22;;;20.95;90.69
4590;BME280;2307;48.448;9.216;2022-08-01T06:59:36;95567.03;;;21.01;90.90
4590;BME280;2307;48.448;9.216;2022-08-01T07:02:02;95568.34;;;21.04;91.39
4590;BME280;2307;48.448;9.216;2022-08-01T07:04:29;95570.38;;;21.26;89.26
4590;BME280;2307;48.448;9.216;2022-08-01T07:06:55;95571.38;;;21.30;90.09
4590;BME280;2307;48.448;9.216;2022-08-01T07:09:21;95570.00;;;21.46;88.22
4590;BME280;2307;48.448;9.216;2022-08-01T07:11:48;95565.50;;;21.55;87.65
4590;BME280;2307;48.448;9.216;2022-08-01T07:14:16;95569.19;;;21.59;87.23
4590;BME280;2307;48.448;9.216;2022-08-01T07:16:43;95575.75;;;21.66;86.64
4590;BME280;2307;48.448;9.216;2022-08-01T07:19:09;95574.94;;;21.80;87.21
4590;BME280;2307;48.448;9.216;2022-08-01T07:21:36;95569.16;;;21.86;86.87
4590;BME280;2307;48.448;9.216;2022-08-01T07:24:03;95572.97;;;21.71;87.65
4590;BME280;2307;48.448;9.216;2022-08-01T07:26:30;95572.94;;;21.85;86.34
4590;BME280;2307;48.448;9.216;2022-08-01T07:28:56;95569.41;;;21.90;85.98
4590;BME280;2307;48.448;9.216;2022-08-01T07:31:24;95574.75;;;22.03;85.77
4590;BME280;2307;48.448;9.216;2022-08-01T07:33:50;95572.19;;;22.20;84.49
4590;BME280;2307;48.448;9.216;2022-08-01T07:36:17;95570.25;;;22.12;85.30
4590;BME280;2307;48.448;9.216;2022-08-01T07:38:43;95576.50;;;22.21;82.52
4590;BME280;2307;48.448;9.216;2022-08-01T07:41:10;95571.59;;;22.23;84.29
4590;BME280;2307;48.448;9.216;2022-08-01T07:43:37;95567.88;;;22.33;82.17
4590;BME280;2307;48.448;9.216;2022-08-01T07:46:03;95568.06;;;22.37;79.53
4590;BME280;2307;48.448;9.216;2022-08-01T07:48:31;95575.00;;;22.51;78.57
4590;BME280;2307;48.448;9.216;2022-08-01T07:50:57;95573.59;;;22.54;80.24
4590;BME280;2307;48.448;9.216;2022-08-01T07:53:24;95572.97;;;22.57;75.61
4590;BME280;2307;48.448;9.216;2022-08-01T07:55:51;95573.78;;;22.57;77.78
4590;BME280;2307;48.448;9.216;2022-08-01T07:58:17;95579.94;;;22.58;78.47
4590;BME280;2307;48.448;9.216;2022-08-01T08:00:44;95575.06;;;22.60;78.08
4590;BME280;2307;48.448;9.216;2022-08-01T08:03:10;95567.72;;;22.74;75.53
4590;BME280;2307;48.448;9.216;2022-08-01T08:05:38;95571.72;;;22.77;78.00
4590;BME280;2307;48.448;9.216;2022-08-01T08:08:04;95570.69;;;22.86;77.37
4590;BME280;2307;48.448;9.216;2022-08-01T08:10:31;95569.53;;;22.79;79.52
4590;BME280;2307;48.448;9.216;2022-08-01T08:12:58;95570.25;;;22.93;76.47
4590;BME280;2307;48.448;9.216;2022-08-01T08:15:24;95575.78;;;22.96;73.98
4590;BME280;2307;48.448;9.216;2022-08-01T08:17:50;95580.44;;;23.04;76.32
4590;BME280;2307;48.448;9.216;2022-08-01T08:20:17;95575.91;;;23.13;72.15
4590;BME280;2307;48.448;9.216;2022-08-01T08:22:45;95566.53;;;23.11;72.17
4590;BME280;2307;48.448;9.216;2022-08-01T08:25:11;95571.31;;;23.14;73.56
4590;BME280;2307;48.448;9.216;2022-08-01T08:27:37;95572.28;;;23.18;72.88
4590;BME280;2307;48.448;9.216;2022-08-01T08:30:05;95574.84;;;23.23;72.74
4590;BME280;2307;48.448;9.216;2022-08-01T08:32:32;95572.16;;;23.23;72.61
4590;BME280;2307;48.448;9.216;2022-08-01T08:34:58;95576.09;;;23.17;73.33
4590;BME280;2307;48.448;9.216;2022-08-01T08:37:25;95577.81;;;23.21;73.85
4590;BME280;2307;48.448;9.216;2022-08-01T08:39:52;95576.44;;;23.24;75.56
4590;BME280;2307;48.448;9.216;2022-08-01T08:42:19;95571.34;;;23.22;74.32
4590;BME280;2307;48.448;9.216;2022-08-01T08:44:45;95570.44;;;23.36;73.86
4590;BME280;2307;48.448;9.216;2022-08-01T08:47:13;95568.63;;;23.53;70.45
4590;BME280;2307;48.448;9.216;2022-08-01T08:49:40;95575.03;;;23.66;73.40
4590;BME280;2307;48.448;9.216;2022-08-01T08:52:08;95585.69;;;23.71;70.20
4590;BME280;2307;48.448;9.216;2022-08-01T08:54:35;95584.25;;;23.73;70.28
4590;BME280;2307;48.448;9.216;2022-08-01T08:57:04;95578.34;;;23.63;72.64
4590;BME280;2307;48.448;9.216;2022-08-01T08:59:31;95578.56;;;23.75;69.77
4590;BME280;2307;48.448;9.216;2022-08-01T09:01:59;95581.75;;;23.86;69.68
4590;BME280;2307;48.448;9.216;2022-08-01T09:04:25;95576.69;;;23.93;68.60
4590;BME280;2307;48.448;9.216;2022-08-01T09:06:52;95576.25;;;24.08;67.52
4590;BME280;2307;48.448;9.216;2022-08-01T09:09:19;95583.13;;;24.22;67.01
4590;BME280;2307;48.448;9.216;2022-08-01T09:11:45;95576.47;;;24.28;66.05
4590;BME280;2307;48.448;9.216;2022-08-01T09:14:14;95575.81;;;24.23;70.63
4590;BME280;2307;48.448;9.216;2022-08-01T09:16:47;95582.00;;;24.23;68.34
4590;BME280;2307;48.448;9.216;2022-08-01T09:19:24;95581.06;;;24.28;67.62
4590;BME280;2307;48.448;9.216;2022-08-01T09:21:56;95573.28;;;24.18;65.48
4590;BME280;2307;48.448;9.216;2022-08-01T09:24:23;95576.13;;;24.13;65.73
4590;BME280;2307;48.448;9.216;2022-08-01T09:26:50;95576.41;;;23.94;66.07
4590;BME280;2307;48.448;9.216;2022-08-01T09:29:19;95574.22;;;24.13;66.32
4590;BME280;2307;48.448;9.216;2022-08-01T09:31:46;95571.88;;;24.29;64.21
4590;BME280;2307;48.448;9.216;2022-08-01T09:34:13;95577.91;;;24.35;64.74
4590;BME280;2307;48.448;9.216;2022-08-01T09:36:43;95572.47;;;24.52;63.22
4590;BME280;2307;48.448;9.216;2022-08-01T09:39:11;95577.41;;;24.58;60.49
4590;BME280;2307;48.448;9.216;2022-08-01T09:41:38;95573.13;;;24.66;61.46
4590;BME280;2307;48.448;9.216;2022-08-01T09:44:05;95575.81;;;24.92;61.06
4590;BME280;2307;48.448;9.216;2022-08-01T09:46:33;95567.19;;;25.07;58.27
4590;BME280;2307;48.448;9.216;2022-08-01T09:49:00;95570.16;;;25.22;57.54
4590;BME280;2307;48.448;9.216;2022-08-01T09:51:27;95562.41;;;25.21;58.83
4590;BME280;2307;48.448;9.216;2022-08-01T09:53:53;95562.59;;;25.07;61.46
4590;BME280;2307;48.448;9.216;2022-08-01T09:56:21;95560.97;;;25.23;62.16
4590;BME280;2307;48.448;9.216;2022-08-01T09:58:48;95555.31;;;25.37;59.56
4590;BME280;2307;48.448;9.216;2022-08-01T10:01:15;95560.69;;;25.54;58.70
4590;BME280;2307;48.448;9.216;2022-08-01T10:03:42;95559.81;;;25.71;58.11
4590;BME280;2307;48.448;9.216;2022-08-01T10:06:18;95561.69;;;25.79;57.28
4590;BME280;2307;48.448;9.216;2022-08-01T10:08:45;95557.00;;;25.88;56.07
4590;BME280;2307;48.448;9.216;2022-08-01T10:11:12;95556.31;;;26.00;56.13
4590;BME280;2307;48.448;9.216;2022-08-01T10:13:38;95554.22;;;26.05;54.83
4590;BME280;2307;48.448;9.216;2022-08-01T10:16:05;95551.81;;;26.04;54.17
4590;BME280;2307;48.448;9.216;2022-08-01T10:18:32;95547.69;;;26.06;54.32
4590;BME280;2307;48.448;9.216;2022-08-01T10:21:01;95542.97;;;25.95;54.39
4590;BME280;2307;48.448;9.216;2022-08-01T10:23:29;95543.03;;;25.86;55.37
4590;BME280;2307;48.448;9.216;2022-08-01T10:25:59;95533.31;;;25.85;54.45
4590;BME280;2307;48.448;9.216;2022-08-01T10:28:26;95530.28;;;26.07;53.81
4590;BME280;2307;48.448;9.216;2022-08-01T10:30:56;95529.34;;;26.32;53.67
4590;BME280;2307;48.448;9.216;2022-08-01T10:33:23;95522.41;;;26.44;51.57
4590;BME280;2307;48.448;9.216;2022-08-01T10:35:49;95527.13;;;26.88;51.71
4590;BME280;2307;48.448;9.216;2022-08-01T10:38:17;95529.31;;;27.07;51.20
4590;BME280;2307;48.448;9.216;2022-08-01T10:40:44;95527.81;;;26.97;49.10
4590;BME280;2307;48.448;9.216;2022-08-01T10:43:11;95525.31;;;26.92;49.26
4590;BME280;2307;48.448;9.216;2022-08-01T10:45:39;95525.59;;;26.78;49.61
4590;BME280;2307;48.448;9.216;2022-08-01T10:48:08;95528.22;;;26.54;50.98
4590;BME280;2307;48.448;9.216;2022-08-01T10:50:37;95527.97;;;26.47;51.10
4590;BME280;2307;48.448;9.216;2022-08-01T10:53:06;95533.41;;;26.38;50.74
4590;BME280;2307;48.448;9.216;2022-08-01T10:55:45;95533.13;;;26.19;51.63
4590;BME280;2307;48.448;9.216;2022-08-01T10:58:12;95530.78;;;26.09;53.36
4590;BME280;2307;48.448;9.216;2022-08-01T11:00:38;95533.94;;;26.11;52.99
4590;BME280;2307;48.448;9.216;2022-08-01T11:03:05;95528.72;;;26.06;53.63
4590;BME280;2307;48.448;9.216;2022-08-01T11:05:32;95530.81;;;26.01;53.41
4590;BME280;2307;48.448;9.216;2022-08-01T11:08:01;95530.50;;;26.02;53.85
4590;BME280;2307;48.448;9.216;2022-08-01T11:10:30;95519.88;;;25.97;53.60
4590;BME280;2307;48.448;9.216;2022-08-01T11:13:02;95521.94;;;26.00;53.99
4590;BME280;2307;48.448;9.216;2022-08-01T11:15:32;95522.16;;;26.07;52.91
4590;BME280;2307;48.448;9.216;2022-08-01T11:18:00;95528.72;;;26.06;53.23
4590;BME280;2307;48.448;9.216;2022-08-01T11:20:27;95517.25;;;26.09;52.84
4590;BME280;2307;48.448;9.216;2022-08-01T11:26:10;95515.91;;;26.15;51.67
4590;BME280;2307;48.448;9.216;2022-08-01T11:28:38;95518.00;;;26.18;53.31
4590;BME280;2307;48.448;9.216;2022-08-01T11:34:05;95519.25;;;25.92;52.64
4590;BME280;2307;48.448;9.216;2022-08-01T11:36:32;95520.66;;;25.98;53.29
4590;BME280;2307;48.448;9.216;2022-08-01T11:39:11;95517.34;;;25.92;53.42
4590;BME280;2307;48.448;9.216;2022-08-01T11:41:38;95519.88;;;25.97;52.37
4590;BME280;2307;48.448;9.216;2022-08-01T11:44:07;95511.47;;;25.90;53.36
4590;BME280;2307;48.448;9.216;2022-08-01T11:46:50;95511.66;;;25.85;54.21
4590;BME280;2307;48.448;9.216;2022-08-01T11:49:26;95509.28;;;25.83;56.01
4590;BME280;2307;48.448;9.216;2022-08-01T11:51:56;95507.03;;;25.85;56.73
4590;BME280;2307;48.448;9.216;2022-08-01T11:54:24;95505.50;;;25.55;57.58
4590;BME280;2307;48.448;9.216;2022-08-01T11:56:52;95501.63;;;25.56;58.13
4590;BME280;2307;48.448;9.216;2022-08-01T11:59:21;95498.44;;;25.63;58.19
4590;BME280;2307;48.448;9.216;2022-08-01T12:01:47;95500.31;;;25.71;57.92
4590;BME280;2307;48.448;9.216;2022-08-01T12:04:13;95500.44;;;25.95;56.35
4590;BME280;2307;48.448;9.216;2022-08-01T12:06:40;95500.84;;;25.85;55.95
4590;BME280;2307;48.448;9.216;2022-08-01T12:09:16;95500.59;;;25.78;56.66
4590;BME280;2307;48.448;9.216;2022-08-01T12:11:43;95499.59;;;26.03;58.31
4590;BME280;2307;48.448;9.216;2022-08-01T12:14:15;95497.78;;;25.66;57.89
4590;BME280;2307;48.448;9.216;2022-08-01T12:16:48;95488.16;;;25.77;58.60
4590;BME280;2307;48.448;9.216;2022-08-01T12:19:18;95485.75;;;25.55;59.69
4590;BME280;2307;48.448;9.216;2022-08-01T12:21:44;95478.13;;;25.48;59.95
4590;BME280;2307;48.448;9.216;2022-08-01T12:24:10;95482.78;;;25.39;59.08
4590;BME280;2307;48.448;9.216;2022-08-01T12:26:40;95486.72;;;25.50;59.99
4590;BME280;2307;48.448;9.216;2022-08-01T12:29:06;95483.28;;;25.70;59.03
4590;BME280;2307;48.448;9.216;2022-08-01T12:31:33;95481.44;;;25.83;57.53
4590;BME280;2307;48.448;9.216;2022-08-01T12:36:42;95483.88;;;26.91;54.89
4590;BME280;2307;48.448;9.216;2022-08-01T12:39:09;95481.06;;;27.24;53.03
4590;BME280;2307;48.448;9.216;2022-08-01T12:41:35;95482.78;;;27.29;51.02
4590;BME280;2307;48.448;9.216;2022-08-01T12:44:02;95490.13;;;27.40;51.63
4590;BME280;2307;48.448;9.216;2022-08-01T12:46:29;95485.59;;;27.32;51.03
4590;BME280;2307;48.448;9.216;2022-08-01T12:48:55;95481.41;;;27.35;50.15
4590;BME280;2307;48.448;9.216;2022-08-01T12:51:21;95481.97;;;27.28;52.54
4590;BME280;2307;48.448;9.216;2022-08-01T12:53:49;95475.69;;;27.49;52.10
4590;BME280;2307;48.448;9.216;2022-08-01T12:56:16;95485.97;;;27.67;50.24
4590;BME280;2307;48.448;9.216;2022-08-01T12:58:42;95476.97;;;27.91;51.14
4590;BME280;2307;48.448;9.216;2022-08-01T13:01:09;95473.19;;;28.20;47.37
4590;BME280;2307;48.448;9.216;2022-08-01T13:03:36;95472.78;;;28.73;47.94
4590;BME280;2307;48.448;9.216;2022-08-01T13:06:09;95472.75;;;29.17;45.57
4590;BME280;2307;48.448;9.216;2022-08-01T13:08:36;95471.34;;;29.54;43.75
4590;BME280;2307;48.448;9.216;2022-08-01T13:11:05;95473.88;;;29.63;41.42
4590;BME280;2307;48.448;9.216;2022-08-01T13:13:37;95470.69;;;29.92;42.48
4590;BME280;2307;48.448;9.216;2022-08-01T13:16:04;95478.09;;;30.11;41.84
4590;BME280;2307;48.448;9.216;2022-08-01T13:18:32;95461.66;;;30.07;40.16
4590;BME280;2307;48.448;9.216;2022-08-01T13:21:09;95472.19;;;29.89;40.47
4590;BME280;2307;48.448;9.216;2022-08-01T13:23:35;95467.97;;;30.11;42.30
4590;BME280;2307;48.448;9.216;2022-08-01T13:26:02;95467.03;;;30.23;42.11
4590;BME280;2307;48.448;9.216;2022-08-01T13:28:30;95472.53;;;30.42;41.21
4590;BME280;2307;48.448;9.216;2022-08-01T13:30:59;95457.03;;;30.46;40.95
4590;BME280;2307;48.448;9.216;2022-08-01T13:33:27;95462.22;;;30.74;40.52